createdAt,value
2023-04-13T00:00:52.635Z,0.90
2023-04-13T00:03:20.119Z,0.83
2023-04-13T00:05:48.440Z,1.00
2023-04-13T00:08:17.195Z,0.90
2023-04-13T00:10:46.053Z,0.90
2023-04-13T00:13:14.832Z,1.10
2023-04-13T00:15:43.243Z,0.90
2023-04-13T00:18:11.046Z,1.00
2023-04-13T00:20:38.754Z,1.00
2023-04-13T00:23:08.384Z,1.10
2023-04-13T00:25:35.619Z,0.80
2023-04-13T00:28:03.713Z,0.80
2023-04-13T00:30:31.257Z,0.90
2023-04-13T00:32:58.572Z,1.20
2023-04-13T00:35:28.830Z,0.80
2023-04-13T00:37:56.043Z,0.90
2023-04-13T00:40:23.274Z,0.90
2023-04-13T00:42:51.972Z,0.93
2023-04-13T00:45:19.866Z,0.93
2023-04-13T00:47:48.307Z,0.90
2023-04-13T00:50:18.065Z,0.97
2023-04-13T00:52:46.493Z,1.00
2023-04-13T00:55:14.725Z,0.87
2023-04-13T00:57:42.085Z,0.90
2023-04-13T01:00:09.779Z,0.80
2023-04-13T01:02:42.133Z,1.00
2023-04-13T01:05:12.785Z,0.87
2023-04-13T01:07:44.954Z,0.90
2023-04-13T01:10:18.996Z,0.83
2023-04-13T01:12:49.173Z,1.03
2023-04-13T01:15:17.794Z,0.80
2023-04-13T01:17:52.217Z,1.00
2023-04-13T01:20:20.325Z,0.87
2023-04-13T01:22:53.075Z,1.00
2023-04-13T01:25:26.378Z,0.93
2023-04-13T01:27:53.513Z,1.00
2023-04-13T01:30:26.146Z,0.90
2023-04-13T01:32:53.600Z,0.80
2023-04-13T01:35:22.836Z,1.00
2023-04-13T01:37:50.940Z,1.10
2023-04-13T01:40:19.227Z,1.03
2023-04-13T01:42:46.435Z,0.90
2023-04-13T01:45:23.666Z,1.10
2023-04-13T01:47:57.832Z,1.17
2023-04-13T01:50:34.591Z,1.03
2023-04-13T01:53:08.453Z,1.17
2023-04-13T01:55:42.820Z,1.20
2023-04-13T01:58:11.438Z,1.20
2023-04-13T02:00:38.815Z,0.97
2023-04-13T02:03:06.686Z,1.20
2023-04-13T02:05:37.845Z,1.10
2023-04-13T02:08:06.429Z,1.10
2023-04-13T02:10:34.547Z,1.10
2023-04-13T02:13:02.141Z,1.20
2023-04-13T02:15:29.302Z,1.43
2023-04-13T02:17:56.483Z,1.20
2023-04-13T02:20:23.662Z,1.27
2023-04-13T02:22:50.850Z,1.20
2023-04-13T02:25:18.894Z,1.60
2023-04-13T02:27:46.071Z,3.20
2023-04-13T02:30:13.399Z,1.40
2023-04-13T02:32:44.253Z,1.50
2023-04-13T02:35:11.593Z,1.37
2023-04-13T02:37:40.274Z,1.30
2023-04-13T02:40:10.605Z,1.30
2023-04-13T02:42:38.536Z,1.10
2023-04-13T02:45:07.468Z,1.30
2023-04-13T02:47:35.149Z,1.70
2023-04-13T02:50:02.470Z,1.37
2023-04-13T02:52:29.787Z,1.30
2023-04-13T02:54:56.932Z,1.40
2023-04-13T02:57:25.201Z,1.27
2023-04-13T02:59:53.267Z,1.20
2023-04-13T03:02:20.825Z,1.20
2023-04-13T03:04:48.829Z,1.23
2023-04-13T03:07:17.224Z,1.17
2023-04-13T03:09:44.858Z,1.40
2023-04-13T03:12:12.179Z,1.70
2023-04-13T03:14:39.531Z,3.70
2023-04-13T03:17:08.270Z,3.73
2023-04-13T03:19:36.067Z,1.80
2023-04-13T03:22:03.387Z,1.40
2023-04-13T03:24:30.809Z,1.20
2023-04-13T03:26:58.326Z,1.47
2023-04-13T03:29:25.706Z,1.40
2023-04-13T03:31:52.847Z,1.30
2023-04-13T03:34:20.038Z,1.60
2023-04-13T03:36:47.423Z,1.30
2023-04-13T03:39:14.638Z,1.43
2023-04-13T03:41:41.822Z,1.27
2023-04-13T03:44:09.290Z,1.47
2023-04-13T03:46:37.719Z,1.40
2023-04-13T03:49:07.490Z,1.37
2023-04-13T03:51:34.822Z,1.30
2023-04-13T03:54:02.102Z,1.30
2023-04-13T03:56:29.673Z,1.17
2023-04-13T03:59:00.927Z,1.30
2023-04-13T04:01:28.615Z,1.20
2023-04-13T04:03:57.619Z,1.30
2023-04-13T04:06:27.178Z,1.20
2023-04-13T04:08:54.363Z,1.10
2023-04-13T04:11:22.327Z,1.43
2023-04-13T04:13:49.487Z,1.60
2023-04-13T04:16:16.722Z,1.30
2023-04-13T04:18:44.340Z,3.00
2023-04-13T04:21:13.094Z,1.50
2023-04-13T04:23:40.605Z,1.30
2023-04-13T04:26:07.962Z,1.30
2023-04-13T04:28:41.031Z,1.50
2023-04-13T04:31:10.996Z,1.30
2023-04-13T04:33:41.488Z,1.37
2023-04-13T04:36:10.433Z,1.73
2023-04-13T04:38:37.968Z,1.30
2023-04-13T04:41:05.303Z,1.60
2023-04-13T04:43:32.541Z,1.47
2023-04-13T04:46:03.077Z,1.43
2023-04-13T04:48:31.700Z,1.47
2023-04-13T04:51:00.034Z,1.50
2023-04-13T04:53:27.444Z,1.37
2023-04-13T04:55:54.613Z,1.30
2023-04-13T04:58:21.818Z,1.70
2023-04-13T05:00:49.868Z,1.77
2023-04-13T05:03:17.168Z,3.30
2023-04-13T05:05:44.475Z,2.03
2023-04-13T05:08:11.954Z,6.07
2023-04-13T05:10:45.489Z,1.80
2023-04-13T05:13:13.152Z,1.70
2023-04-13T05:15:40.494Z,1.50
2023-04-13T05:18:07.810Z,1.30
2023-04-13T05:20:35.305Z,1.30
2023-04-13T05:23:03.096Z,1.50
2023-04-13T05:25:30.353Z,1.90
2023-04-13T05:27:57.511Z,1.50
2023-04-13T05:30:24.692Z,1.50
2023-04-13T05:32:52.239Z,1.60
2023-04-13T05:35:19.506Z,1.90
2023-04-13T05:37:46.800Z,1.80
2023-04-13T05:40:15.046Z,1.80
2023-04-13T05:42:43.605Z,1.50
2023-04-13T05:45:11.001Z,1.53
2023-04-13T05:47:40.220Z,1.37
2023-04-13T05:50:08.355Z,1.40
2023-04-13T05:52:35.583Z,1.50
2023-04-13T05:55:03.996Z,1.70
2023-04-13T05:57:31.321Z,2.63
2023-04-13T05:59:59.515Z,1.57
2023-04-13T06:02:26.939Z,1.67
2023-04-13T06:04:55.197Z,1.60
2023-04-13T06:07:22.986Z,1.60
2023-04-13T06:09:50.250Z,1.60
2023-04-13T06:12:18.405Z,2.00
2023-04-13T06:14:46.010Z,2.23
2023-04-13T06:17:14.167Z,2.37
2023-04-13T06:19:41.364Z,2.20
2023-04-13T06:22:08.631Z,2.53
2023-04-13T06:24:35.815Z,3.63
2023-04-13T06:27:03.053Z,4.17
2023-04-13T06:29:30.387Z,3.20
2023-04-13T06:31:57.531Z,2.50
2023-04-13T06:34:25.180Z,2.20
2023-04-13T06:36:52.802Z,2.13
2023-04-13T06:39:20.004Z,2.90
2023-04-13T06:41:48.337Z,3.20
2023-04-13T06:44:15.653Z,2.00
2023-04-13T06:46:42.924Z,2.00
2023-04-13T06:49:10.113Z,1.70
2023-04-13T06:51:37.349Z,1.70
2023-04-13T06:54:04.842Z,1.70
2023-04-13T06:56:32.206Z,2.07
2023-04-13T06:59:02.700Z,1.53
2023-04-13T07:01:30.500Z,1.70
2023-04-13T07:03:59.069Z,1.60
2023-04-13T07:06:26.571Z,1.90
2023-04-13T07:08:53.700Z,1.70
2023-04-13T07:11:20.888Z,2.50
2023-04-13T07:13:48.039Z,2.33
2023-04-13T07:16:15.803Z,2.10
2023-04-13T07:18:42.978Z,3.03
2023-04-13T07:21:10.207Z,2.47
2023-04-13T07:23:37.510Z,4.17
2023-04-13T07:26:04.805Z,5.07
2023-04-13T07:28:31.981Z,1.80
2023-04-13T07:30:59.157Z,2.10
2023-04-13T07:33:26.338Z,1.70
2023-04-13T07:35:55.542Z,3.07
2023-04-13T07:38:23.046Z,4.87
2023-04-13T07:40:50.162Z,1.90
2023-04-13T07:43:19.753Z,2.10
2023-04-13T07:45:47.533Z,3.47
2023-04-13T07:48:14.753Z,4.00
2023-04-13T07:50:42.693Z,2.10
2023-04-13T07:53:10.004Z,5.03
2023-04-13T07:55:38.015Z,3.27
2023-04-13T07:58:05.325Z,2.67
2023-04-13T08:00:32.479Z,4.43
2023-04-13T08:02:59.805Z,1.77
2023-04-13T08:05:27.475Z,7.97
2023-04-13T08:07:57.108Z,3.57
2023-04-13T08:10:24.659Z,9.60
2023-04-13T08:12:51.932Z,6.23
2023-04-13T08:15:19.373Z,15.83
2023-04-13T08:17:46.910Z,9.33
2023-04-13T08:20:16.591Z,10.10
2023-04-13T08:22:46.309Z,9.33
2023-04-13T08:25:13.694Z,8.57
2023-04-13T08:27:59.056Z,11.70
2023-04-13T08:30:35.413Z,3.87
2023-04-13T08:33:03.190Z,17.03
2023-04-13T08:35:30.914Z,4.70
2023-04-13T08:37:58.318Z,1.90
2023-04-13T08:40:26.041Z,1.77
2023-04-13T08:42:56.862Z,2.10
2023-04-13T08:45:24.226Z,1.80
2023-04-13T08:47:51.655Z,1.63
2023-04-13T08:50:19.186Z,2.20
2023-04-13T08:52:46.418Z,2.07
2023-04-13T08:55:15.788Z,2.33
2023-04-13T08:57:43.416Z,3.00
2023-04-13T09:00:17.009Z,2.90
2023-04-13T09:03:00.282Z,2.00
2023-04-13T09:05:30.818Z,2.90
2023-04-13T09:08:01.776Z,2.80
2023-04-13T09:10:29.418Z,2.30
2023-04-13T09:12:56.774Z,2.90
2023-04-13T09:15:24.715Z,2.37
2023-04-13T09:17:52.180Z,2.00
2023-04-13T09:20:21.904Z,1.83
2023-04-13T09:22:53.110Z,2.20
2023-04-13T09:25:21.744Z,2.20
2023-04-13T09:27:49.111Z,1.83
2023-04-13T09:30:19.772Z,1.87
2023-04-13T09:32:47.410Z,2.10
2023-04-13T09:35:15.148Z,1.83
2023-04-13T09:37:42.768Z,1.70
2023-04-13T09:40:14.256Z,1.70
2023-04-13T09:42:42.469Z,1.80
2023-04-13T09:45:10.063Z,1.87
2023-04-13T09:47:38.737Z,1.73
2023-04-13T09:50:07.125Z,1.80
2023-04-13T09:52:34.797Z,2.20
2023-04-13T09:55:02.265Z,1.93
2023-04-13T09:57:30.800Z,1.57
2023-04-13T10:00:01.575Z,2.10
2023-04-13T10:02:29.473Z,3.53
2023-04-13T10:04:57.873Z,1.90
2023-04-13T10:07:30.156Z,1.70
2023-04-13T10:09:57.488Z,1.83
2023-04-13T10:12:25.675Z,6.23
2023-04-13T10:14:58.090Z,6.80
2023-04-13T10:17:25.563Z,4.30
2023-04-13T10:19:54.055Z,2.80
2023-04-13T10:22:23.983Z,1.83
2023-04-13T10:24:54.976Z,1.70
2023-04-13T10:27:23.659Z,1.80
2023-04-13T10:29:51.380Z,1.80
2023-04-13T10:32:23.240Z,1.83
2023-04-13T10:34:51.295Z,1.63
2023-04-13T10:37:19.873Z,2.57
2023-04-13T10:39:47.568Z,3.83
2023-04-13T10:42:17.908Z,4.90
2023-04-13T10:44:46.340Z,4.73
2023-04-13T10:47:14.237Z,2.60
2023-04-13T10:49:42.010Z,1.73
2023-04-13T10:52:12.381Z,1.70
2023-04-13T10:54:40.670Z,1.77
2023-04-13T10:57:09.766Z,1.83
2023-04-13T10:59:56.449Z,1.90
2023-04-13T11:02:27.137Z,1.60
2023-04-13T11:04:55.175Z,1.60
2023-04-13T11:07:23.565Z,2.03
2023-04-13T11:09:51.059Z,1.73
2023-04-13T11:12:19.221Z,1.60
2023-04-13T11:14:50.384Z,1.50
2023-04-13T11:17:19.544Z,3.07
2023-04-13T11:19:50.872Z,10.43
2023-04-13T11:22:19.265Z,1.83
2023-04-13T11:24:47.804Z,11.13
2023-04-13T11:27:18.429Z,6.17
2023-04-13T11:29:57.968Z,3.63
2023-04-13T11:32:26.352Z,1.80
2023-04-13T11:34:53.829Z,1.77
2023-04-13T11:37:21.848Z,1.80
2023-04-13T11:39:50.664Z,1.10
2023-04-13T11:42:17.932Z,1.40
2023-04-13T11:44:47.655Z,1.60
2023-04-13T11:47:17.991Z,2.27
2023-04-13T11:49:48.163Z,8.33
2023-04-13T11:52:16.397Z,1.40
2023-04-13T11:54:44.848Z,1.70
2023-04-13T11:57:12.750Z,1.40
2023-04-13T11:59:40.192Z,1.70
2023-04-13T12:02:19.594Z,2.03
2023-04-13T12:04:49.985Z,2.33
2023-04-13T12:07:22.165Z,8.93
2023-04-13T12:10:00.912Z,1.60
2023-04-13T12:12:51.343Z,2.17
2023-04-13T12:15:42.744Z,1.60
2023-04-13T12:18:15.569Z,1.60
2023-04-13T12:20:46.832Z,1.57
2023-04-13T12:23:22.893Z,1.50
2023-04-13T12:26:41.194Z,1.80
2023-04-13T12:28:59.868Z,1.60
2023-04-13T12:31:33.838Z,1.33
2023-04-13T12:34:01.277Z,1.20
2023-04-13T12:36:31.635Z,1.20
2023-04-13T12:38:59.678Z,1.40
2023-04-13T12:41:27.504Z,1.80
2023-04-13T12:43:54.788Z,2.00
2023-04-13T12:46:22.141Z,1.57
2023-04-13T12:48:49.420Z,1.43
2023-04-13T12:51:16.674Z,3.43
2023-04-13T12:53:43.964Z,1.57
2023-04-13T12:56:11.249Z,1.90
2023-04-13T12:58:38.717Z,1.70
2023-04-13T13:01:06.977Z,1.53
2023-04-13T13:03:36.835Z,1.33
2023-04-13T13:06:05.667Z,1.50
2023-04-13T13:08:35.491Z,1.40
2023-04-13T13:11:05.016Z,1.43
2023-04-13T13:13:32.210Z,1.10
2023-04-13T13:15:59.532Z,1.40
2023-04-13T13:18:35.439Z,1.20
2023-04-13T13:21:06.132Z,1.60
2023-04-13T13:23:33.424Z,1.80
2023-04-13T13:26:22.121Z,1.83
2023-04-13T13:28:48.139Z,1.70
2023-04-13T13:31:15.673Z,2.43
2023-04-13T13:33:43.604Z,2.93
2023-04-13T13:36:11.360Z,2.00
2023-04-13T13:38:38.617Z,1.87
2023-04-13T13:41:06.377Z,1.87
2023-04-13T13:43:33.684Z,2.30
2023-04-13T13:46:01.051Z,3.07
2023-04-13T13:48:28.379Z,2.20
2023-04-13T13:50:56.135Z,2.03
2023-04-13T13:53:23.459Z,1.80
2023-04-13T13:55:50.958Z,2.47
2023-04-13T13:58:18.385Z,2.60
2023-04-13T14:00:46.200Z,2.13
2023-04-13T14:03:16.622Z,3.43
2023-04-13T14:05:44.355Z,3.80
2023-04-13T14:08:11.844Z,1.80
2023-04-13T14:10:39.363Z,2.30
2023-04-13T14:13:06.682Z,1.60
2023-04-13T14:15:34.272Z,2.30
2023-04-13T14:18:11.009Z,1.70
2023-04-13T14:20:39.810Z,1.50
2023-04-13T14:23:09.362Z,1.30
2023-04-13T14:25:37.449Z,1.13
2023-04-13T14:28:05.068Z,1.30
2023-04-13T14:30:32.352Z,1.37
2023-04-13T14:32:59.625Z,1.60
2023-04-13T14:35:26.920Z,1.20
2023-04-13T14:37:54.625Z,1.43
2023-04-13T14:40:23.322Z,1.20
2023-04-13T14:42:53.755Z,1.17
2023-04-13T20:19:33.693Z,2.97
2023-04-13T20:22:02.397Z,3.67
2023-04-13T20:24:30.438Z,2.70
2023-04-13T20:26:58.175Z,2.40
2023-04-13T20:29:27.359Z,2.47
2023-04-13T20:31:55.376Z,2.10
2023-04-13T20:34:24.338Z,2.47
2023-04-13T20:36:54.632Z,3.30
2023-04-13T20:39:26.671Z,2.90
2023-04-13T20:41:57.105Z,3.10
2023-04-13T20:44:25.494Z,2.73
2023-04-13T20:46:54.675Z,2.70
2023-04-13T20:49:26.203Z,3.40
2023-04-13T20:51:53.800Z,4.40
2023-04-13T20:54:21.628Z,4.50
2023-04-13T20:56:49.319Z,4.93
2023-04-13T20:59:18.403Z,4.60
2023-04-13T21:01:46.071Z,4.40
2023-04-13T21:04:13.380Z,5.30
2023-04-13T21:06:40.848Z,6.17
2023-04-13T21:09:08.812Z,7.80
2023-04-13T21:11:36.569Z,9.10
2023-04-13T21:14:05.193Z,14.00
2023-04-13T21:16:33.003Z,7.43
2023-04-13T21:19:03.024Z,5.73
2023-04-13T21:21:30.741Z,6.77
2023-04-13T21:23:58.395Z,5.03
2023-04-13T21:26:25.917Z,4.70
2023-04-13T21:28:53.800Z,4.30
2023-04-13T21:31:21.176Z,5.53
2023-04-13T21:33:48.820Z,2.60
2023-04-13T21:38:46.292Z,2.50
2023-04-13T21:41:20.518Z,2.03
2023-04-13T21:43:48.085Z,2.60
2023-04-13T21:46:16.255Z,3.43
2023-04-13T21:48:43.893Z,2.30
2023-04-13T21:51:11.594Z,2.30
2023-04-13T21:53:39.292Z,2.40
2023-04-13T21:56:06.930Z,2.37
2023-04-13T21:58:41.230Z,2.27
2023-04-13T22:01:08.804Z,2.50
2023-04-13T22:03:37.995Z,2.50
2023-04-13T22:06:07.667Z,3.00
2023-04-13T22:08:35.351Z,2.87
2023-04-13T22:11:02.683Z,3.10
2023-04-13T22:13:30.183Z,3.00
2023-04-13T22:15:57.744Z,3.60
2023-04-13T22:18:26.606Z,3.43
2023-04-13T22:20:54.006Z,3.60
2023-04-13T22:23:21.278Z,3.53
2023-04-13T22:25:52.465Z,3.37
2023-04-13T22:28:20.261Z,3.53
2023-04-13T22:30:47.712Z,4.37
2023-04-13T22:33:15.458Z,4.93
2023-04-13T22:35:42.841Z,4.00
2023-04-13T22:40:38.856Z,4.60
2023-04-13T22:43:06.498Z,3.70
2023-04-13T22:45:33.810Z,3.80
2023-04-13T22:48:01.457Z,4.10
2023-04-13T22:50:28.990Z,3.97
2023-04-13T22:52:56.366Z,3.60
2023-04-13T22:55:23.632Z,3.90
2023-04-13T22:57:51.049Z,3.83
2023-04-13T23:00:20.751Z,3.63
2023-04-13T23:02:50.770Z,3.73
2023-04-13T23:05:18.250Z,3.37
2023-04-13T23:07:45.529Z,4.67
2023-04-13T23:10:13.614Z,4.33
2023-04-13T23:12:41.993Z,5.80
2023-04-13T23:15:09.356Z,7.07
2023-04-13T23:17:36.735Z,5.23
2023-04-13T23:20:07.109Z,5.40
2023-04-13T23:22:34.622Z,5.43
2023-04-13T23:25:02.060Z,4.67
2023-04-13T23:27:29.228Z,5.60
2023-04-13T23:29:56.526Z,5.90
2023-04-13T23:32:24.250Z,5.10
2023-04-13T23:34:52.815Z,4.83
2023-04-13T23:37:21.172Z,5.10
2023-04-13T23:39:48.484Z,4.80
2023-04-13T23:42:16.196Z,4.43
2023-04-13T23:44:47.140Z,4.10
2023-04-13T23:47:14.769Z,3.97
2023-04-13T23:49:42.444Z,3.33
2023-04-13T23:52:10.030Z,3.40
2023-04-13T23:54:37.372Z,3.73
2023-04-13T23:57:04.741Z,4.20
2023-04-13T23:59:32.165Z,3.77
